createdAt,value
2023-04-20T05:03:04.492Z,0.50
2023-04-20T05:04:04.328Z,0.50
2023-04-20T05:05:06.108Z,0.50
2023-04-20T05:06:05.156Z,0.50
2023-04-20T05:07:05.145Z,0.50
2023-04-20T05:08:04.130Z,0.50
2023-04-20T05:09:04.118Z,0.34
2023-04-20T05:10:04.120Z,0.34
2023-04-20T05:11:05.133Z,0.34
2023-04-20T05:12:04.106Z,0.34
2023-04-20T05:13:05.100Z,0.34
2023-04-20T05:14:05.096Z,0.34
2023-04-20T05:15:04.090Z,0.34
2023-04-20T05:16:04.092Z,0.34
2023-04-20T05:17:05.082Z,0.34
2023-04-20T05:18:05.106Z,0.34
2023-04-20T05:19:05.107Z,0.34
2023-04-20T05:20:05.040Z,0.34
2023-04-20T05:21:05.046Z,0.36
2023-04-20T05:22:05.042Z,0.43
2023-04-20T05:23:04.033Z,0.49
2023-04-20T05:24:05.018Z,0.50
2023-04-20T05:25:05.021Z,0.50
2023-04-20T05:26:04.002Z,0.51
2023-04-20T05:27:04.023Z,0.50
2023-04-20T05:28:03.994Z,0.50
2023-04-20T05:29:04.985Z,0.50
2023-04-20T05:30:17.102Z,0.50
2023-04-20T05:31:04.966Z,0.50
2023-04-20T05:32:04.069Z,0.48
2023-04-20T05:33:03.961Z,0.48
2023-04-20T05:34:03.963Z,0.46
2023-04-20T05:35:03.967Z,0.45
2023-04-20T05:36:04.922Z,0.51
2023-04-20T05:37:03.934Z,0.50
2023-04-20T05:38:04.907Z,0.50
2023-04-20T05:39:03.910Z,0.51
2023-04-20T05:40:03.905Z,0.50
2023-04-20T05:41:03.888Z,0.50
2023-04-20T05:42:03.900Z,0.50
2023-04-20T05:43:03.886Z,0.50
2023-04-20T05:44:03.873Z,0.50
2023-04-20T05:45:04.872Z,0.51
2023-04-20T05:46:04.908Z,0.50
2023-04-20T05:47:04.863Z,0.51
2023-04-20T05:48:04.940Z,0.51
2023-04-20T05:49:04.665Z,0.50
2023-04-20T05:50:04.921Z,0.51
2023-04-20T05:51:03.956Z,0.50
2023-04-20T05:52:03.970Z,0.51
2023-04-20T05:53:04.014Z,0.50
2023-04-20T05:54:04.076Z,0.51
2023-04-20T05:55:05.090Z,0.51
2023-04-20T05:56:05.118Z,0.50
2023-04-20T05:57:05.147Z,0.51
2023-04-20T05:58:05.195Z,0.51
2023-04-20T05:59:05.213Z,0.51
2023-04-20T06:00:05.249Z,0.51
2023-04-20T06:01:04.319Z,0.51
2023-04-20T06:02:05.747Z,0.51
2023-04-20T06:03:05.694Z,0.51
2023-04-20T06:04:05.832Z,0.62
2023-04-20T06:05:05.615Z,0.86
2023-04-20T06:06:05.460Z,0.89
2023-04-20T06:07:05.568Z,0.71
2023-04-20T06:08:05.550Z,0.71
2023-04-20T06:09:04.542Z,0.69
2023-04-20T06:10:04.584Z,0.69
2023-04-20T06:11:05.567Z,0.70
2023-04-20T06:12:05.566Z,0.70
2023-04-20T06:13:05.556Z,0.70
2023-04-20T06:14:04.577Z,0.68
2023-04-20T06:15:04.593Z,0.68
2023-04-20T06:16:05.650Z,0.68
2023-04-20T06:17:05.692Z,0.67
2023-04-20T06:18:05.924Z,0.67
2023-04-20T06:19:05.870Z,0.65
2023-04-20T06:20:06.001Z,0.67
2023-04-20T06:21:05.932Z,0.71
2023-04-20T06:22:05.988Z,0.66
2023-04-20T06:23:06.117Z,0.66
2023-04-20T06:24:06.033Z,0.67
2023-04-20T06:25:06.027Z,0.68
2023-04-20T06:26:06.021Z,0.68
2023-04-20T06:27:06.013Z,0.70
2023-04-20T06:28:06.016Z,0.70
2023-04-20T06:29:06.008Z,0.68
2023-04-20T06:30:05.021Z,0.70
2023-04-20T06:31:05.150Z,0.71
2023-04-20T06:32:06.088Z,0.71
2023-04-20T06:33:06.071Z,0.71
2023-04-20T06:34:06.043Z,0.69
2023-04-20T06:35:06.080Z,0.69
2023-04-20T06:36:06.082Z,0.66
2023-04-20T06:37:06.055Z,0.66
2023-04-20T06:38:05.051Z,0.66
2023-04-20T06:39:06.137Z,0.64
2023-04-20T06:40:06.060Z,0.65
2023-04-20T06:41:05.048Z,0.66
2023-04-20T06:42:06.058Z,0.64
2023-04-20T06:43:06.067Z,0.66
2023-04-20T06:44:06.075Z,0.65
2023-04-20T06:45:06.073Z,0.65
2023-04-20T06:46:06.106Z,0.65
2023-04-20T06:47:05.173Z,0.64
2023-04-20T06:48:09.952Z,0.65
2023-04-20T06:49:06.698Z,0.66
2023-04-20T06:50:06.104Z,0.66
2023-04-20T06:51:06.106Z,0.66
2023-04-20T06:52:06.213Z,0.65
2023-04-20T06:53:05.098Z,0.67
2023-04-20T06:54:06.065Z,0.71
2023-04-20T06:55:06.253Z,0.71
2023-04-20T06:56:06.068Z,0.70
2023-04-20T06:57:05.207Z,0.69
2023-04-20T06:58:05.051Z,0.69
2023-04-20T06:59:05.031Z,0.69
2023-04-20T07:00:05.043Z,0.71
2023-04-20T07:01:06.062Z,0.71
2023-04-20T07:02:06.266Z,0.71
2023-04-20T07:03:06.144Z,0.71
2023-04-20T07:04:06.088Z,0.72
2023-04-20T07:05:04.998Z,0.75
2023-04-20T07:06:05.998Z,0.76
2023-04-20T07:07:04.988Z,0.77
2023-04-20T07:08:05.982Z,0.77
2023-04-20T07:09:04.997Z,0.77
2023-04-20T07:10:05.059Z,0.78
2023-04-20T07:11:06.032Z,0.79
2023-04-20T07:12:06.037Z,0.82
2023-04-20T07:13:06.013Z,0.82
2023-04-20T07:14:05.095Z,0.84
2023-04-20T07:15:05.078Z,0.84
2023-04-20T07:16:06.036Z,0.85
2023-04-20T07:17:06.003Z,0.86
2023-04-20T07:18:06.029Z,0.87
2023-04-20T07:19:06.005Z,0.89
2023-04-20T07:20:04.989Z,0.90
2023-04-20T07:21:04.990Z,0.88
2023-04-20T07:22:04.993Z,0.86
2023-04-20T07:23:05.012Z,0.88
2023-04-20T07:24:05.010Z,0.91
2023-04-20T07:25:06.023Z,0.91
2023-04-20T07:26:05.990Z,0.94
2023-04-20T07:27:06.158Z,0.90
2023-04-20T07:28:05.992Z,0.89
2023-04-20T07:29:06.012Z,0.88
2023-04-20T07:30:05.986Z,0.88
2023-04-20T07:31:06.050Z,0.88
2023-04-20T07:32:06.023Z,0.89
2023-04-20T07:33:06.070Z,0.89
2023-04-20T07:34:06.005Z,0.90
2023-04-20T07:35:06.044Z,0.90
2023-04-20T07:36:05.044Z,0.92
2023-04-20T07:37:06.021Z,0.92
2023-04-20T07:38:06.205Z,0.92
2023-04-20T07:39:06.024Z,0.92
2023-04-20T07:40:06.051Z,0.91
2023-04-20T07:41:06.071Z,0.89
2023-04-20T07:42:05.113Z,0.90
2023-04-20T07:43:05.145Z,0.90
2023-04-20T07:44:05.132Z,0.91
2023-04-20T07:45:05.153Z,0.95
2023-04-20T07:46:06.233Z,0.95
2023-04-20T07:47:06.249Z,0.82
2023-04-20T07:48:06.303Z,0.76
2023-04-20T07:49:05.220Z,0.73
2023-04-20T07:50:06.239Z,0.71
2023-04-20T07:51:06.298Z,0.75
2023-04-20T07:52:16.247Z,0.61
2023-04-20T07:53:06.329Z,0.61
2023-04-20T07:54:06.312Z,0.62
2023-04-20T07:55:06.318Z,0.62
2023-04-20T07:56:05.312Z,0.62
2023-04-20T07:57:05.295Z,0.62
2023-04-20T07:58:05.294Z,0.61
2023-04-20T07:59:06.301Z,0.60
2023-04-20T08:00:05.264Z,0.59
2023-04-20T08:01:06.268Z,0.58
2023-04-20T08:02:06.355Z,0.57
2023-04-20T08:03:06.405Z,0.55
2023-04-20T08:04:06.615Z,0.56
2023-04-20T08:05:05.372Z,0.57
2023-04-20T08:06:06.463Z,0.57
2023-04-20T08:07:06.266Z,0.56
2023-04-20T08:08:06.242Z,0.55
2023-04-20T08:09:06.214Z,0.54
2023-04-20T08:10:05.219Z,0.55
2023-04-20T08:11:06.203Z,0.55
2023-04-20T08:12:05.216Z,0.54
2023-04-20T08:13:06.191Z,0.55
2023-04-20T08:14:06.222Z,0.54
2023-04-20T08:15:06.188Z,0.54
2023-04-20T08:16:06.203Z,0.54
2023-04-20T08:17:05.228Z,0.54
2023-04-20T08:18:05.669Z,0.53
2023-04-20T08:19:06.305Z,0.54
2023-04-20T08:20:06.454Z,0.52
2023-04-20T08:21:05.441Z,0.51
2023-04-20T08:22:05.502Z,0.50
2023-04-20T08:23:06.579Z,0.50
2023-04-20T08:24:06.650Z,0.50
2023-04-20T08:25:06.680Z,0.51
2023-04-20T08:26:06.750Z,0.52
2023-04-20T08:27:06.792Z,0.52
2023-04-20T08:28:06.293Z,0.52
2023-04-20T08:29:06.866Z,0.53
2023-04-20T08:30:06.850Z,0.51
2023-04-20T08:31:06.922Z,0.51
2023-04-20T08:32:06.841Z,0.51
2023-04-20T08:33:05.889Z,0.50
2023-04-20T08:34:06.815Z,0.50
2023-04-20T08:35:06.818Z,0.50
2023-04-20T08:36:05.804Z,0.50
2023-04-20T08:37:06.812Z,0.51
2023-04-20T08:38:05.797Z,0.51
2023-04-20T08:39:06.790Z,0.51
2023-04-20T08:40:06.797Z,0.50
2023-04-20T08:41:06.782Z,0.50
2023-04-20T08:42:06.252Z,0.50
2023-04-20T08:43:05.761Z,0.51
2023-04-20T08:44:06.765Z,0.50
2023-04-20T08:45:06.761Z,0.51
2023-04-20T08:46:06.796Z,0.50
2023-04-20T08:47:07.065Z,0.50
2023-04-20T08:48:06.792Z,0.50
2023-04-20T08:49:06.718Z,0.50
2023-04-20T08:50:06.726Z,0.50
2023-04-20T08:51:06.703Z,0.50
2023-04-20T08:52:06.707Z,0.52
2023-04-20T08:53:05.697Z,0.51
2023-04-20T08:54:06.688Z,0.51
2023-04-20T08:55:06.680Z,0.50
2023-04-20T08:56:06.677Z,0.50
2023-04-20T08:57:06.767Z,0.51
2023-04-20T08:58:05.673Z,0.51
2023-04-20T08:59:05.787Z,0.50
2023-04-20T09:00:06.648Z,0.50
2023-04-20T09:01:05.793Z,0.50
2023-04-20T09:02:06.766Z,0.50
2023-04-20T09:03:05.881Z,0.51
2023-04-20T09:04:05.722Z,0.51
2023-04-20T09:05:06.717Z,0.51
2023-04-20T09:06:05.690Z,0.50
2023-04-20T09:07:06.738Z,0.50
2023-04-20T09:08:05.785Z,0.51
2023-04-20T09:09:05.835Z,0.51
2023-04-20T09:10:05.885Z,0.51
2023-04-20T09:11:05.955Z,0.51
2023-04-20T09:12:07.362Z,0.50
2023-04-20T09:13:07.052Z,0.50
2023-04-20T09:14:07.095Z,0.50
2023-04-20T09:15:06.159Z,0.50
2023-04-20T09:16:07.253Z,0.51
2023-04-20T09:17:06.285Z,0.50
2023-04-20T09:18:06.559Z,0.50
2023-04-20T09:19:09.053Z,0.50
2023-04-20T09:20:06.394Z,0.51
2023-04-20T09:21:07.391Z,0.51
2023-04-20T09:22:07.394Z,0.51
2023-04-20T09:23:07.383Z,0.50
2023-04-20T09:24:07.363Z,0.50
2023-04-20T09:25:07.366Z,0.50
2023-04-20T09:26:07.357Z,0.52
2023-04-20T09:27:07.341Z,0.51
2023-04-20T09:28:07.347Z,0.50
2023-04-20T09:29:06.331Z,0.51
2023-04-20T09:30:06.338Z,0.51
2023-04-20T09:31:07.323Z,0.51
2023-04-20T09:32:07.386Z,0.51
2023-04-20T09:33:06.309Z,0.52
2023-04-20T09:34:07.422Z,0.51
2023-04-20T09:35:07.313Z,0.51
2023-04-20T09:36:07.313Z,0.52
2023-04-20T09:37:07.398Z,0.52
2023-04-20T09:38:06.283Z,0.53
2023-04-20T09:39:06.278Z,0.53
2023-04-20T09:40:07.265Z,0.53
2023-04-20T09:41:07.251Z,0.53
2023-04-20T09:42:07.232Z,0.54
2023-04-20T09:43:07.251Z,0.55
2023-04-20T09:44:07.241Z,0.57
2023-04-20T09:45:07.288Z,0.57
2023-04-20T09:46:07.408Z,0.56
2023-04-20T09:47:07.411Z,0.58
2023-04-20T09:48:06.814Z,0.59
2023-04-20T09:49:07.523Z,0.60
2023-04-20T09:50:22.856Z,0.60
2023-04-20T09:51:07.880Z,0.60
2023-04-20T09:52:07.575Z,0.59
2023-04-20T09:53:07.781Z,0.59
2023-04-20T09:54:07.563Z,0.60
2023-04-20T09:55:07.551Z,0.60
2023-04-20T09:56:07.645Z,0.60
2023-04-20T09:57:07.531Z,0.62
2023-04-20T09:58:07.537Z,0.62
2023-04-20T09:59:07.537Z,0.61
2023-04-20T10:00:06.554Z,0.62
2023-04-20T10:01:07.698Z,0.62
2023-04-20T10:02:07.747Z,0.62
2023-04-20T10:03:07.938Z,0.63
2023-04-20T10:04:07.978Z,0.62
2023-04-20T10:05:07.823Z,0.62
2023-04-20T10:06:07.874Z,0.63
2023-04-20T10:07:07.967Z,0.64
2023-04-20T10:08:07.987Z,0.65
2023-04-20T10:09:08.031Z,0.65
2023-04-20T10:10:08.080Z,0.64
2023-04-20T10:11:07.156Z,0.65
2023-04-20T10:12:08.210Z,0.64
2023-04-20T10:13:08.254Z,0.65
2023-04-20T10:14:08.306Z,0.66
2023-04-20T10:15:08.353Z,0.67
2023-04-20T10:16:08.409Z,0.67
2023-04-20T10:17:08.753Z,0.67
2023-04-20T10:18:08.786Z,0.67
2023-04-20T10:19:09.156Z,0.66
2023-04-20T10:20:08.604Z,0.66
2023-04-20T10:21:07.657Z,0.67
2023-04-20T10:22:07.687Z,0.66
2023-04-20T10:23:08.773Z,0.66
2023-04-20T10:24:08.787Z,0.67
2023-04-20T10:25:08.843Z,0.67
2023-04-20T10:26:08.869Z,0.66
2023-04-20T10:27:08.911Z,0.66
2023-04-20T10:28:08.969Z,0.65
2023-04-20T10:29:09.000Z,0.65
2023-04-20T10:30:09.041Z,0.65
2023-04-20T10:31:08.116Z,0.65
2023-04-20T10:32:09.124Z,0.65
2023-04-20T10:33:08.385Z,0.65
2023-04-20T10:34:09.224Z,0.65
2023-04-20T10:35:09.261Z,0.65
2023-04-20T10:36:09.338Z,0.64
2023-04-20T10:37:08.346Z,0.64
2023-04-20T10:38:09.783Z,0.65
2023-04-20T10:39:09.504Z,0.65
2023-04-20T10:40:09.484Z,0.65
2023-04-20T10:41:09.537Z,0.65
2023-04-20T10:42:09.590Z,0.65
2023-04-20T10:43:08.803Z,0.64
2023-04-20T10:44:09.671Z,0.64
2023-04-20T10:45:08.702Z,0.64
2023-04-20T10:46:09.779Z,0.65
2023-04-20T10:47:08.790Z,0.65
2023-04-20T10:48:09.349Z,0.65
2023-04-20T10:49:09.876Z,0.64
2023-04-20T10:50:08.906Z,0.64
2023-04-20T10:51:09.950Z,0.64
2023-04-20T10:52:10.004Z,0.64
2023-04-20T10:53:09.034Z,0.64
2023-04-20T10:54:09.071Z,0.64
2023-04-20T10:55:10.152Z,0.64
2023-04-20T10:56:10.170Z,0.64
2023-04-20T10:57:10.202Z,0.63
2023-04-20T10:58:10.255Z,0.63
2023-04-20T10:59:10.325Z,0.64
2023-04-20T11:00:09.341Z,0.63
2023-04-20T11:01:10.442Z,0.63
2023-04-20T11:02:10.573Z,0.64
2023-04-20T11:03:10.596Z,0.64
2023-04-20T11:04:10.566Z,0.63
2023-04-20T11:05:10.589Z,0.63
2023-04-20T11:06:09.593Z,0.63
2023-04-20T11:07:09.654Z,0.64
2023-04-20T11:08:09.680Z,0.62
2023-04-20T11:09:10.720Z,0.62
2023-04-20T11:10:10.762Z,0.61
2023-04-20T11:11:11.279Z,0.62
2023-04-20T11:12:09.851Z,0.62
2023-04-20T11:13:10.935Z,0.63
2023-04-20T11:14:10.939Z,0.63
2023-04-20T11:15:10.989Z,0.63
2023-04-20T11:16:11.084Z,0.63
2023-04-20T11:17:11.116Z,0.63
2023-04-20T11:18:10.158Z,0.64
2023-04-20T11:19:10.183Z,0.62
2023-04-20T11:20:11.225Z,0.62
2023-04-20T11:21:11.263Z,0.63
2023-04-20T11:22:11.313Z,0.62
2023-04-20T11:23:10.370Z,0.61
2023-04-20T11:24:10.406Z,0.61
2023-04-20T11:25:10.442Z,0.63
2023-04-20T11:26:11.509Z,0.62
2023-04-20T11:27:10.665Z,0.61
2023-04-20T11:28:10.619Z,0.61
2023-04-20T11:29:11.626Z,0.62
2023-04-20T11:30:10.670Z,0.60
2023-04-20T11:31:10.727Z,0.61
2023-04-20T11:32:10.889Z,0.60
2023-04-20T11:33:10.977Z,0.61
2023-04-20T11:34:11.860Z,0.61
2023-04-20T11:35:11.256Z,0.60
2023-04-20T11:36:10.974Z,0.61
2023-04-20T11:37:12.006Z,0.60
2023-04-20T11:38:12.324Z,0.59
2023-04-20T11:39:12.112Z,0.61
2023-04-20T11:40:12.124Z,0.61
2023-04-20T11:41:11.173Z,0.62
2023-04-20T11:42:11.204Z,0.62
2023-04-20T11:43:11.342Z,0.60
2023-04-20T11:44:12.268Z,0.58
2023-04-20T11:45:12.331Z,0.57
2023-04-20T11:46:11.402Z,0.53
2023-04-20T11:47:11.388Z,0.56
2023-04-20T11:48:12.412Z,0.58
2023-04-20T11:49:12.461Z,0.57
2023-04-20T11:50:12.489Z,0.57
2023-04-20T11:51:12.523Z,0.61
2023-04-20T11:52:11.549Z,0.62
2023-04-20T11:53:12.580Z,0.65
2023-04-20T11:54:12.592Z,0.62
2023-04-20T11:55:12.644Z,0.60
2023-04-20T11:56:11.651Z,0.60
2023-04-20T11:57:12.693Z,0.57
2023-04-20T11:58:12.722Z,0.57
2023-04-20T11:59:12.745Z,0.57
2023-04-20T12:00:12.763Z,0.59
2023-04-20T12:01:12.768Z,0.57
2023-04-20T12:02:11.866Z,0.58
2023-04-20T12:03:13.003Z,0.56
2023-04-20T12:04:12.057Z,0.57
2023-04-20T12:05:12.966Z,0.57
2023-04-20T12:06:11.908Z,0.56
2023-04-20T12:07:12.951Z,0.54
2023-04-20T12:08:12.990Z,0.55
2023-04-20T12:09:13.018Z,0.56
2023-04-20T12:10:12.033Z,0.57
2023-04-20T12:11:13.072Z,0.60
2023-04-20T12:12:13.091Z,0.58
2023-04-20T12:13:12.113Z,0.57
2023-04-20T12:14:12.155Z,0.62
2023-04-20T12:15:13.204Z,0.60
2023-04-20T12:16:12.276Z,0.63
2023-04-20T12:17:13.279Z,0.65
2023-04-20T12:18:13.322Z,0.63
2023-04-20T12:19:13.331Z,0.59
2023-04-20T12:20:13.398Z,0.63
2023-04-20T12:21:13.399Z,0.64
2023-04-20T12:22:13.442Z,0.63
2023-04-20T12:23:12.465Z,0.64
2023-04-20T12:24:13.494Z,0.64
2023-04-20T12:25:13.501Z,0.69
2023-04-20T12:26:13.520Z,0.67
2023-04-20T12:27:13.541Z,0.64
2023-04-20T12:28:13.567Z,0.66
2023-04-20T12:29:13.563Z,0.68
2023-04-20T12:30:13.562Z,0.67
2023-04-20T12:31:13.665Z,0.70
2023-04-20T12:32:13.577Z,0.69
2023-04-20T12:33:13.620Z,0.69
2023-04-20T12:34:13.590Z,0.69
2023-04-20T12:35:12.660Z,0.71
2023-04-20T12:36:13.594Z,0.72
2023-04-20T12:37:13.588Z,0.69
2023-04-20T12:38:14.743Z,0.69
2023-04-20T12:39:12.596Z,0.67
2023-04-20T12:40:12.608Z,0.67
2023-04-20T12:41:12.631Z,0.67
2023-04-20T12:42:12.638Z,0.65
2023-04-20T12:43:12.648Z,0.65
2023-04-20T12:44:13.675Z,0.65
2023-04-20T12:45:13.692Z,0.66
2023-04-20T12:46:12.740Z,0.61
2023-04-20T12:47:12.840Z,0.57
2023-04-20T12:48:12.875Z,0.54
2023-04-20T12:49:12.806Z,0.57
2023-04-20T12:50:13.815Z,0.57
2023-04-20T12:51:13.826Z,0.56
2023-04-20T12:52:13.845Z,0.56
2023-04-20T12:53:13.873Z,0.56
2023-04-20T12:54:13.877Z,0.56
2023-04-20T12:55:12.892Z,0.54
2023-04-20T12:56:12.925Z,0.54
2023-04-20T12:57:13.945Z,0.50
2023-04-20T12:58:13.977Z,0.54
2023-04-20T12:59:13.973Z,0.55
2023-04-20T13:00:14.668Z,0.57
2023-04-20T13:01:14.025Z,0.57
2023-04-20T13:02:13.083Z,0.56
2023-04-20T13:03:14.220Z,0.56
2023-04-20T13:04:14.306Z,0.52
2023-04-20T13:05:13.009Z,0.55
2023-04-20T13:06:14.491Z,0.58
2023-04-20T13:07:14.029Z,0.59
2023-04-20T13:08:13.025Z,0.57
2023-04-20T13:09:13.056Z,0.52
2023-04-20T13:10:14.063Z,0.55
2023-04-20T13:11:13.032Z,0.54
2023-04-20T13:12:14.046Z,0.56
2023-04-20T13:13:13.068Z,0.57
2023-04-20T13:14:13.076Z,0.56
2023-04-20T13:15:13.087Z,0.50
2023-04-20T13:16:13.113Z,0.50
2023-04-20T13:17:14.131Z,0.51
2023-04-20T13:18:14.119Z,0.55
2023-04-20T13:19:14.170Z,0.57
2023-04-20T13:20:14.148Z,0.58
2023-04-20T13:21:13.172Z,0.59
2023-04-20T13:22:17.382Z,0.60
2023-04-20T13:24:13.215Z,0.59
2023-04-20T13:25:14.225Z,0.58
2023-04-20T13:26:13.243Z,0.58
2023-04-20T13:27:14.314Z,0.58
2023-04-20T13:28:14.857Z,0.57
2023-04-20T13:29:14.380Z,0.57
2023-04-20T13:30:14.326Z,0.55
2023-04-20T13:31:14.367Z,0.55
2023-04-20T13:32:13.486Z,0.54
2023-04-20T13:33:13.497Z,0.53
2023-04-20T13:34:13.449Z,0.53
2023-04-20T13:35:14.501Z,0.50
2023-04-20T13:36:13.522Z,0.51
2023-04-20T13:37:14.550Z,0.53
2023-04-20T13:38:14.587Z,0.51
2023-04-20T13:39:14.607Z,0.50
2023-04-20T13:40:14.675Z,0.50
2023-04-20T13:41:14.676Z,0.50
2023-04-20T13:42:13.708Z,0.51
2023-04-20T13:43:14.753Z,0.52
2023-04-20T13:44:14.781Z,0.51
2023-04-20T13:45:13.821Z,0.52
2023-04-20T13:46:14.871Z,0.53
2023-04-20T13:47:13.904Z,0.51
2023-04-20T13:48:14.892Z,0.51
2023-04-20T13:49:13.939Z,0.51
2023-04-20T13:50:14.968Z,0.51
2023-04-20T13:51:14.011Z,0.53
2023-04-20T13:52:15.012Z,0.53
2023-04-20T13:53:14.039Z,0.52
2023-04-20T13:54:15.058Z,0.51
2023-04-20T13:55:14.087Z,0.54
2023-04-20T13:56:15.110Z,0.52
2023-04-20T13:57:15.133Z,0.52
2023-04-20T13:58:14.150Z,0.52
2023-04-20T13:59:14.177Z,0.52
2023-04-20T14:00:15.174Z,0.52
2023-04-20T14:01:14.235Z,0.53
2023-04-20T14:02:15.226Z,0.54
2023-04-20T14:03:15.577Z,0.53
2023-04-20T14:04:14.315Z,0.53
2023-04-20T14:05:15.245Z,0.53
2023-04-20T14:06:15.258Z,0.53
2023-04-20T14:07:14.316Z,0.52
2023-04-20T14:08:15.297Z,0.54
2023-04-20T14:09:15.320Z,0.53
2023-04-20T14:10:14.340Z,0.51
2023-04-20T14:11:15.319Z,0.52
2023-04-20T14:12:15.351Z,0.51
2023-04-20T14:13:14.352Z,0.50
2023-04-20T14:14:14.359Z,0.50
2023-04-20T14:15:15.358Z,0.50
2023-04-20T14:16:15.398Z,0.50
2023-04-20T14:17:18.433Z,0.51
2023-04-20T14:18:14.364Z,0.51
2023-04-20T14:19:15.349Z,0.50
2023-04-20T14:20:15.333Z,0.48
2023-04-20T14:21:15.337Z,0.47
2023-04-20T14:22:15.335Z,0.48
2023-04-20T14:23:15.353Z,0.52
2023-04-20T14:24:14.340Z,0.50
2023-04-20T14:25:15.310Z,0.51
2023-04-20T14:26:15.304Z,0.51
2023-04-20T14:27:15.309Z,0.50
2023-04-20T14:28:15.297Z,0.50
2023-04-20T14:29:14.272Z,0.51
2023-04-20T14:30:15.269Z,0.50
2023-04-20T14:31:14.331Z,0.50
2023-04-20T14:32:15.265Z,0.50
2023-04-20T14:33:14.260Z,0.51
2023-04-20T14:34:14.259Z,0.50
2023-04-20T14:35:15.242Z,0.52
2023-04-20T14:36:15.240Z,0.53
2023-04-20T14:37:14.232Z,0.54
2023-04-20T14:38:14.224Z,0.54
2023-04-20T14:39:15.251Z,0.52
2023-04-20T14:40:14.210Z,0.53
2023-04-20T14:41:15.195Z,0.51
2023-04-20T14:42:14.202Z,0.52
2023-04-20T14:43:14.188Z,0.53
2023-04-20T14:44:14.187Z,0.52
2023-04-20T14:45:15.236Z,0.53
2023-04-20T14:46:15.216Z,0.53
2023-04-20T14:47:15.173Z,0.52
2023-04-20T14:48:15.149Z,0.52
2023-04-20T14:49:15.142Z,0.53
2023-04-20T14:50:14.138Z,0.53
2023-04-20T14:51:15.166Z,0.52
2023-04-20T14:52:15.222Z,0.52
2023-04-20T14:53:15.263Z,0.53
2023-04-20T14:54:14.324Z,0.52
2023-04-20T14:55:15.366Z,0.53
2023-04-20T14:56:14.393Z,0.54
2023-04-20T14:57:15.441Z,0.54
2023-04-20T14:58:14.488Z,0.55
2023-04-20T14:59:14.546Z,0.55
2023-04-20T15:00:14.584Z,0.55
2023-04-20T15:01:14.677Z,0.55
2023-04-20T15:02:14.735Z,0.55
2023-04-20T15:03:15.820Z,0.56
2023-04-20T15:04:16.035Z,0.56
2023-04-20T15:05:16.017Z,0.55
2023-04-20T15:06:15.836Z,0.56
2023-04-20T15:07:14.882Z,0.57
2023-04-20T15:08:14.930Z,0.57
2023-04-20T15:09:15.977Z,0.57
2023-04-20T15:10:16.010Z,0.57
2023-04-20T15:11:16.083Z,0.57
2023-04-20T15:12:16.103Z,0.57
2023-04-20T15:13:16.144Z,0.58
2023-04-20T15:14:16.313Z,0.57
2023-04-20T15:15:16.295Z,0.58
2023-04-20T15:16:16.283Z,0.58
2023-04-20T15:17:16.323Z,0.58
2023-04-20T15:18:15.345Z,0.58
2023-04-20T15:19:15.407Z,0.58
2023-04-20T15:20:15.491Z,0.59
2023-04-20T15:21:15.477Z,0.59
2023-04-20T15:22:16.536Z,0.59
2023-04-20T15:23:16.573Z,0.58
2023-04-20T15:24:15.768Z,0.59
2023-04-20T15:25:15.668Z,0.59
2023-04-20T15:26:16.710Z,0.59
2023-04-20T15:27:15.774Z,0.60
2023-04-20T15:28:16.798Z,0.62
2023-04-20T15:29:16.839Z,0.62
